CheckWX is a tool to help pilots better visualize weather data.  It is not intended as a substitute for an official pre-flight weather briefing.

13:22:47 UTC

CYOD TAF
CFB Cold Lake Airport
Cold Lake, Canada
TAF CYOD 161130Z 1612/1712 VRB03KT 5SM BR FEW070 BKN120 BECMG 1612/1614 P6SM NSW FM161400 VRB03KT P6SM SCT040 BKN120 TEMPO 1618/1624 P6SM -SHRA BKN040 PROB30 1618/1624 6SM TSRA BR BKN040CB FM170700 VRB03KT P6SM FEW100 PROB30 1708/1712 2SM BR RMK NXT FCST BY 161800Z

Jun-16@
12:00 UTC

Jun-16 @ 12:00 UTC

Jun-17@
12:00 UTC

Jun-17 @ 12:00 UTC

TAF CYOD 161130Z 1612/1712 VRB03KT 5SM BR FEW070 BKN120
Wind
  • Variable at 3 KTS
Conditions
Mist
Cloud Levels
  • Few at 7,000' AGL
  • Broken at 12,000' AGL

Jun-16@
12:00 UTC

Jun-16 @ 12:00 UTC

Jun-16@
14:00 UTC

Jun-16 @ 14:00 UTC

BECMG 1612/1614 P6SM NSW

Becoming

Becoming Conditions expected by Sun, Jun 16, 2019 @ 14:00 UTC

Wind
  • Variable at 3 KTS
Conditions
No significant weather
Cloud Levels
  • Few at 7,000' AGL
  • Broken at 12,000' AGL

Jun-16@
14:00 UTC

Jun-16 @ 14:00 UTC

Jun-17@
07:00 UTC

Jun-17 @ 07:00 UTC

FM161400 VRB03KT P6SM SCT040 BKN120

From

From Standard forecast or significant change

Wind
  • Variable at 3 KTS
Cloud Levels
  • Scattered at 4,000' AGL
  • Broken at 12,000' AGL

Jun-16@
18:00 UTC

Jun-16 @ 18:00 UTC

Jun-17@
00:00 UTC

Jun-17 @ 00:00 UTC

TEMPO 1618/1624 P6SM -SHRA BKN040

Temporary

Temporary Changes expected for less than half the time period

Conditions
Light Rain
Cloud Levels
  • Broken at 4,000' AGL

Jun-16@
18:00 UTC

Jun-16 @ 18:00 UTC

Jun-17@
00:00 UTC

Jun-17 @ 00:00 UTC

PROB30 1618/1624 6SM TSRA BR BKN040CB

Probable - 30% Likelihood

Probable - 30% Likelihood during this time.

Conditions
Thunderstorm, Rain, Mist
Cloud Levels
  • Broken at 4,000' AGL

Jun-17@
07:00 UTC

Jun-17 @ 07:00 UTC

Jun-17@
12:00 UTC

Jun-17 @ 12:00 UTC

FM170700 VRB03KT P6SM FEW100

From

From Standard forecast or significant change

Wind
  • Variable at 3 KTS
Cloud Levels
  • Few at 10,000' AGL

Jun-17@
08:00 UTC

Jun-17 @ 08:00 UTC

Jun-17@
12:00 UTC

Jun-17 @ 12:00 UTC

PROB30 1708/1712 2SM BR RMK NXT FCST BY 161800Z

Probable - 30% Likelihood

Probable - 30% Likelihood during this time.

Conditions
Mist